This is the latest recevied weather packets stored in our database for station/object VK4TOM-13. If no packets are shown the sender has not sent any weather packets the latest 10 day(s).
| Time | Temp. | Humidity | Pressure | Rain* | Wind** | Luminosity | Snow |
|---|---|---|---|---|---|---|---|
| 1778217807 | 28.33° C | 16% | 1015.9 hPa | 0 mm | - | - | - |
| 1778217206 | 28.89° C | 16% | 1015.8 hPa | 0 mm | - | - | - |
| 1778216605 | 28.33° C | 16% | 1015.9 hPa | 0 mm | - | - | - |
| 1778216004 | 28.33° C | 17% | 1016 hPa | 0 mm | - | - | - |
| 1778215403 | 28.33° C | 17% | 1016.1 hPa | 0 mm | - | - | - |
| 1778214802 | 28.33° C | 18% | 1016.1 hPa | 0 mm | - | - | - |
| 1778214201 | 28.33° C | 17% | 1016.1 hPa | 0 mm | - | - | - |
| 1778213600 | 27.78° C | 18% | 1016.3 hPa | 0 mm | - | - | - |
| 1778212998 | 28.33° C | 18% | 1016.4 hPa | 0 mm | - | - | - |
| 1778212397 | 27.78° C | 20% | 1016.6 hPa | 0 mm | - | - | - |
| 1778211797 | 27.78° C | 21% | 1016.8 hPa | 0 mm | - | - | - |
| 1778211195 | 27.22° C | 21% | 1016.9 hPa | 0 mm | - | - | - |
| 1778209993 | 26.67° C | 22% | 1017.2 hPa | 0 mm | - | - | - |
| 1778198925 | 22.22° C | 41% | 1020.6 hPa | 0 mm | - | - | - |
| 1778196765 | 21.67° C | 54% | 1020.8 hPa | 0 mm | - | - | - |
| 1778196164 | 21.11° C | 59% | 1020.9 hPa | 0 mm | - | - | - |
| 1778194962 | 20.56° C | 70% | 1020.8 hPa | 0 mm | - | - | - |
| 1778194361 | 20° C | 70% | 1020.7 hPa | 0 mm | - | - | - |
| 1778193760 | 19.44° C | 70% | 1020.7 hPa | 0 mm | - | - | - |
| 1778193159 | 19.44° C | 70% | 1020.5 hPa | 0 mm | - | - | - |
| 1778192558 | 18.33° C | 70% | 1020.5 hPa | 0 mm | - | - | - |
| 1778191957 | 17.78° C | 70% | 1020.5 hPa | 0 mm | - | - | - |
| 1778191356 | 17.22° C | 70% | 1020.4 hPa | 0 mm | - | - | - |
| 1778190754 | 16.67° C | 70% | 1020.4 hPa | 0 mm | - | - | - |
| 1778190154 | 16.11° C | 70% | 1020.4 hPa | 0 mm | - | - | - |
* Rain since midnight (hover to see other rain measurements)
** Current wind speed in m/s (hover to see current wind gust speed)